Time;durP1;ratioP1;P1;durP2;ratioP2;P2;SDS_P1;SDS_P2;PMS_P1;PMS_P2;Temp;Humidity;BMP_temperature;BMP_pressure;BME280_temperature;BME280_humidity;BME280_pressure;Samples;Min_cycle;Max_cycle;Signal;HPM_P1;HPM_P2
2023/01/14 04:02:34;;;;;;;0.85;0.40;;;17.90;50.90;;;;;;4903289;23;46438;-63
2023/01/14 04:04:59;;;;;;;0.80;0.40;;;17.90;50.90;;;;;;4883387;28;45258;-63
2023/01/14 04:07:25;;;;;;;1.40;0.40;;;17.90;50.90;;;;;;4895681;28;45136;-63
2023/01/14 04:09:51;;;;;;;0.30;0.30;;;17.90;51.00;;;;;;4886642;28;46035;-63
2023/01/14 04:12:16;;;;;;;0.70;0.43;;;17.90;50.90;;;;;;4918583;28;45503;-64
2023/01/14 04:17:26;;;;;;;0.70;0.55;;;17.90;51.00;;;;;;4927005;28;45052;-63
2023/01/14 04:19:51;;;;;;;0.63;0.40;;;17.90;51.00;;;;;;4919131;28;45485;-63
2023/01/14 04:22:17;;;;;;;0.90;0.63;;;17.90;51.00;;;;;;4916691;28;46842;-63
2023/01/14 04:24:42;;;;;;;0.47;0.45;;;17.90;51.00;;;;;;4937439;28;45061;-63
2023/01/14 04:27:08;;;;;;;1.73;0.52;;;17.80;50.90;;;;;;4934169;28;45288;-63
2023/01/14 04:29:34;;;;;;;1.25;0.60;;;17.90;51.00;;;;;;4917682;28;46250;-63
2023/01/14 04:31:59;;;;;;;0.57;0.45;;;17.80;51.00;;;;;;4931108;28;45771;-63
2023/01/14 04:34:25;;;;;;;0.95;0.63;;;17.80;51.00;;;;;;4933436;28;45049;-63
2023/01/14 04:36:50;;;;;;;0.63;0.50;;;17.80;51.00;;;;;;4934276;28;45367;-62
2023/01/14 04:39:16;;;;;;;0.57;0.47;;;17.80;51.00;;;;;;4928550;28;46278;-63
2023/01/14 04:44:25;;;;;;;0.85;0.30;;;17.80;51.10;;;;;;4930745;28;45315;-63
2023/01/14 04:46:51;;;;;;;0.63;0.40;;;17.80;51.00;;;;;;4918187;28;45658;-63
2023/01/14 04:49:16;;;;;;;0.75;0.57;;;17.80;51.00;;;;;;4929819;28;45466;-63
2023/01/14 04:51:42;;;;;;;0.35;0.32;;;17.80;51.10;;;;;;4912823;28;45486;-63
2023/01/14 04:54:07;;;;;;;0.82;0.50;;;17.70;51.00;;;;;;4927935;28;45644;-63
2023/01/14 04:56:33;;;;;;;0.50;0.40;;;17.70;51.00;;;;;;4930027;28;47779;-63
2023/01/14 04:59:01;;;;;;;0.68;0.50;;;17.70;51.10;;;;;;4929631;28;45879;-63
2023/01/14 05:01:28;;;;;;;0.65;0.50;;;17.70;51.00;;;;;;4930215;28;45413;-63
2023/01/14 05:03:58;;;;;;;1.45;0.50;;;17.70;51.00;;;;;;4913224;28;45761;-63
2023/01/14 05:06:26;;;;;;;0.52;0.40;;;17.70;51.00;;;;;;4916223;28;45360;-63
2023/01/14 05:08:52;;;;;;;1.48;0.50;;;17.70;51.00;;;;;;4900922;28;47048;-63
2023/01/14 05:11:18;;;;;;;0.75;0.45;;;17.70;51.10;;;;;;4930440;28;45461;-63
2023/01/14 05:13:43;;;;;;;0.93;0.65;;;17.70;51.10;;;;;;4892287;28;44893;-63
2023/01/14 05:16:09;;;;;;;1.70;0.55;;;17.70;51.10;;;;;;4931768;28;44860;-63
2023/01/14 05:18:34;;;;;;;0.93;0.50;;;17.60;51.00;;;;;;4934327;28;45252;-63
2023/01/14 05:21:00;;;;;;;1.25;0.60;;;17.70;51.10;;;;;;4919257;28;45437;-63
2023/01/14 05:23:25;;;;;;;0.75;0.32;;;17.70;51.10;;;;;;4914991;28;45409;-63
2023/01/14 05:25:51;;;;;;;1.05;0.50;;;17.70;51.10;;;;;;4916608;28;45366;-63
2023/01/14 05:28:17;;;;;;;0.75;0.50;;;17.60;51.10;;;;;;4932006;28;45895;-62
2023/01/14 05:30:43;;;;;;;0.70;0.60;;;17.70;51.10;;;;;;4912421;28;44734;-62
2023/01/14 05:33:08;;;;;;;0.85;0.52;;;17.60;51.00;;;;;;4933334;28;45268;-63
2023/01/14 05:35:34;;;;;;;1.05;0.43;;;17.60;51.60;;;;;;4916200;28;44910;-63
2023/01/14 05:38:00;;;;;;;1.00;0.55;;;17.60;51.10;;;;;;4917246;28;45695;-63
2023/01/14 05:40:25;;;;;;;1.20;0.70;;;17.60;51.10;;;;;;4933484;28;45220;-63
2023/01/14 05:45:49;;;;;;;0.80;0.60;;;17.60;51.10;;;;;;4930604;28;45565;-62
2023/01/14 05:48:16;;;;;;;0.77;0.57;;;17.50;51.10;;;;;;4905932;28;46290;-63
2023/01/14 05:50:41;;;;;;;1.40;0.60;;;17.50;51.10;;;;;;4912881;28;46068;-63
2023/01/14 05:53:07;;;;;;;1.20;0.47;;;17.60;51.20;;;;;;4929650;28;45332;-62
2023/01/14 05:55:33;;;;;;;0.60;0.50;;;17.50;51.70;;;;;;4897002;28;45235;-62
2023/01/14 05:57:59;;;;;;;0.52;0.50;;;17.50;51.10;;;;;;4915185;28;46242;-62
2023/01/14 06:08:26;;;;;;;1.35;0.60;;;17.50;51.20;;;;;;4933227;28;45423;-63
2023/01/14 06:10:52;;;;;;;1.48;0.60;;;17.50;51.10;;;;;;4932479;28;45336;-62
2023/01/14 06:13:17;;;;;;;0.73;0.40;;;17.50;51.20;;;;;;4920209;28;45682;-62
2023/01/14 06:15:46;;;;;;;1.27;0.63;;;17.50;51.20;;;;;;4901903;28;45256;-62
2023/01/14 06:18:15;;;;;;;1.15;0.50;;;17.50;51.20;;;;;;4902604;28;45939;-63
2023/01/14 06:20:43;;;;;;;1.23;0.60;;;17.50;51.10;;;;;;4927396;28;45265;-64
2023/01/14 06:23:09;;;;;;;0.95;0.50;;;17.50;51.20;;;;;;4916595;28;45217;-64
2023/01/14 06:25:35;;;;;;;1.52;0.70;;;17.50;51.10;;;;;;4899083;28;45881;-63
2023/01/14 06:28:00;;;;;;;1.00;0.80;;;17.50;51.10;;;;;;4916974;28;46064;-63
2023/01/14 06:30:29;;;;;;;0.88;0.45;;;17.50;51.10;;;;;;4893073;28;45316;-61
2023/01/14 06:32:55;;;;;;;0.57;0.40;;;17.50;51.20;;;;;;4919656;28;45789;-59
2023/01/14 06:35:22;;;;;;;0.57;0.45;;;17.50;51.10;;;;;;4937597;28;45189;-63
2023/01/14 06:37:48;;;;;;;0.95;0.52;;;17.60;51.10;;;;;;4920580;28;45648;-63
2023/01/14 06:40:14;;;;;;;1.35;0.50;;;17.60;51.10;;;;;;4905216;28;45521;-62
2023/01/14 06:42:42;;;;;;;0.50;0.40;;;17.60;51.00;;;;;;4932356;28;46051;-62
2023/01/14 06:45:09;;;;;;;0.98;0.50;;;17.60;50.90;;;;;;4936990;28;46034;-62
2023/01/14 06:47:34;;;;;;;1.17;0.40;;;17.60;50.90;;;;;;4918394;28;46632;-61
2023/01/14 06:50:00;;;;;;;1.10;0.55;;;17.70;50.90;;;;;;4935917;28;45364;-62
2023/01/14 06:52:25;;;;;;;1.23;0.63;;;17.70;50.90;;;;;;4934607;28;45334;-62
2023/01/14 06:54:52;;;;;;;1.10;0.70;;;17.80;50.90;;;;;;4920829;28;45283;-62
2023/01/14 06:57:18;;;;;;;0.60;0.50;;;17.80;50.80;;;;;;4931388;28;45721;-62
2023/01/14 06:59:44;;;;;;;0.82;0.60;;;17.80;50.80;;;;;;4936049;28;45158;-62
2023/01/14 07:02:11;;;;;;;0.38;0.38;;;17.80;50.70;;;;;;4932607;28;45229;-62
2023/01/14 07:04:36;;;;;;;1.13;0.40;;;17.80;50.80;;;;;;4918155;28;45199;-62
2023/01/14 07:07:02;;;;;;;1.17;0.60;;;17.80;50.70;;;;;;4920715;28;45979;-61
2023/01/14 07:09:27;;;;;;;0.82;0.60;;;17.80;50.70;;;;;;4933625;28;45141;-62
2023/01/14 07:11:53;;;;;;;1.30;0.88;;;17.80;50.70;;;;;;4932651;28;45340;-63
2023/01/14 07:14:18;;;;;;;0.93;0.50;;;17.90;50.80;;;;;;4931913;28;45473;-62
2023/01/14 07:16:44;;;;;;;0.82;0.47;;;17.90;50.70;;;;;;4870746;28;46951;-61
2023/01/14 07:19:11;;;;;;;0.45;0.40;;;17.90;50.80;;;;;;4934520;28;45429;-62
2023/01/14 07:21:39;;;;;;;0.90;0.60;;;17.90;50.70;;;;;;4914682;28;45151;-62
2023/01/14 07:24:05;;;;;;;0.90;0.50;;;17.90;51.30;;;;;;4933895;28;44940;-60
2023/01/14 07:26:31;;;;;;;1.20;0.60;;;17.90;50.70;;;;;;4939093;28;45220;-63
2023/01/14 07:28:57;;;;;;;0.82;0.50;;;17.90;50.60;;;;;;4936021;28;45130;-63
2023/01/14 07:31:22;;;;;;;1.50;0.70;;;17.90;50.60;;;;;;4934065;28;45379;-64
2023/01/14 07:33:48;;;;;;;0.85;0.68;;;17.90;50.60;;;;;;4917936;28;44846;-63
2023/01/14 07:36:13;;;;;;;1.13;0.50;;;18.00;50.70;;;;;;4933712;28;46069;-62
2023/01/14 07:38:39;;;;;;;0.40;0.40;;;17.90;50.70;;;;;;4916952;28;45352;-63
2023/01/14 07:41:11;;;;;;;0.85;0.50;;;18.00;50.70;;;;;;4935055;28;45487;-61
2023/01/14 07:43:37;;;;;;;1.08;0.60;;;18.00;50.80;;;;;;4914846;28;45649;-62
2023/01/14 07:46:02;;;;;;;1.38;0.50;;;18.00;50.70;;;;;;4932309;28;46313;-62
2023/01/14 07:48:28;;;;;;;0.68;0.40;;;18.00;50.70;;;;;;4919758;28;44980;-63
2023/01/14 07:50:54;;;;;;;0.63;0.50;;;18.00;50.60;;;;;;4919142;28;45270;-62
2023/01/14 07:53:19;;;;;;;1.48;0.60;;;18.00;50.60;;;;;;4918708;28;45394;-62
2023/01/14 07:55:45;;;;;;;1.88;0.80;;;18.00;50.60;;;;;;4932955;28;46673;-62
2023/01/14 07:58:10;;;;;;;0.60;0.40;;;18.10;50.60;;;;;;4919555;28;45367;-63
2023/01/14 08:00:36;;;;;;;0.90;0.60;;;18.10;50.60;;;;;;4918625;28;46368;-61
2023/01/14 08:03:02;;;;;;;1.23;0.57;;;18.10;50.60;;;;;;4932568;28;45707;-62
2023/01/14 08:05:27;;;;;;;1.17;0.80;;;18.10;50.60;;;;;;4931392;28;45518;-63
2023/01/14 08:07:53;;;;;;;1.70;0.68;;;18.10;50.40;;;;;;4915645;28;45679;-63
2023/01/14 08:10:19;;;;;;;0.70;0.60;;;18.10;50.10;;;;;;4914480;28;44798;-62
2023/01/14 08:12:44;;;;;;;1.00;0.60;;;18.10;50.80;;;;;;4897203;28;45342;-64
2023/01/14 08:15:11;;;;;;;0.80;0.55;;;18.10;50.30;;;;;;4934914;28;45435;-63
2023/01/14 08:17:37;;;;;;;1.55;0.50;;;18.00;50.30;;;;;;4924627;28;45114;-63
2023/01/14 08:20:03;;;;;;;1.52;0.60;;;18.00;50.30;;;;;;4920714;28;45296;-63
2023/01/14 08:22:29;;;;;;;1.33;0.82;;;18.00;50.40;;;;;;4920713;28;45649;-65
2023/01/14 08:24:55;;;;;;;1.17;0.60;;;18.00;50.40;;;;;;4937459;28;47262;-63
2023/01/14 08:27:20;;;;;;;0.75;0.50;;;18.00;50.40;;;;;;4919234;28;45292;-64
2023/01/14 08:29:46;;;;;;;1.88;0.60;;;18.00;50.40;;;;;;4935061;28;45346;-63
2023/01/14 08:32:13;;;;;;;1.23;0.65;;;18.00;50.50;;;;;;4936996;28;45221;-63
2023/01/14 08:34:38;;;;;;;1.45;0.60;;;18.00;50.50;;;;;;4923413;28;45666;-64
2023/01/14 08:41:22;;;;;;;2.10;0.60;;;17.90;50.50;;;;;;4908721;28;45087;-64
2023/01/14 08:43:49;;;;;;;0.90;0.50;;;17.90;50.50;;;;;;4904407;28;45817;-64
2023/01/14 08:46:14;;;;;;;0.85;0.50;;;17.90;50.50;;;;;;4929790;28;46750;-65
2023/01/14 08:48:40;;;;;;;1.45;0.55;;;17.90;50.50;;;;;;4930570;28;45337;-65
2023/01/14 08:51:07;;;;;;;0.82;0.50;;;17.90;50.60;;;;;;4917315;28;45712;-63
2023/01/14 08:53:35;;;;;;;0.47;0.45;;;17.90;50.60;;;;;;4931908;28;45661;-64
2023/01/14 08:56:00;;;;;;;0.95;0.60;;;17.80;50.60;;;;;;4911559;28;48634;-64
2023/01/14 08:58:26;;;;;;;0.90;0.50;;;17.80;50.60;;;;;;4927011;28;46569;-66
2023/01/14 09:00:56;;;;;;;1.20;0.73;;;17.80;50.60;;;;;;4914611;28;46585;-64
2023/01/14 09:03:22;;;;;;;1.13;0.75;;;17.80;50.70;;;;;;4914644;28;45588;-63
2023/01/14 09:05:48;;;;;;;1.38;0.70;;;17.80;50.70;;;;;;4910613;28;45367;-63
2023/01/14 09:17:17;;;;;;;0.55;0.45;;;17.70;50.80;;;;;;4911893;28;48898;-62
2023/01/14 09:19:53;;;;;;;0.82;0.60;;;17.70;50.80;;;;;;4899649;28;46808;-62
2023/01/14 09:22:27;;;;;;;1.02;0.40;;;17.70;50.80;;;;;;4909563;28;45562;-61
2023/01/14 09:24:53;;;;;;;2.08;0.70;;;17.70;50.80;;;;;;4896302;28;48395;-61
2023/01/14 09:27:19;;;;;;;0.88;0.60;;;17.70;50.90;;;;;;4909095;28;45213;-62
2023/01/14 09:29:44;;;;;;;0.50;0.50;;;17.60;50.90;;;;;;4895355;28;45347;-62
2023/01/14 09:32:10;;;;;;;0.77;0.52;;;17.60;51.00;;;;;;4894154;28;45685;-62
2023/01/14 09:34:40;;;;;;;0.57;0.50;;;17.60;50.90;;;;;;4914167;28;46132;-61
2023/01/14 09:37:05;;;;;;;1.17;0.63;;;17.60;51.00;;;;;;4909493;28;46576;-62
2023/01/14 09:39:31;;;;;;;0.98;0.60;;;17.60;51.00;;;;;;4931992;28;45337;-61
2023/01/14 09:41:58;;;;;;;0.98;0.55;;;17.60;51.00;;;;;;4906876;28;45661;-62
2023/01/14 09:44:24;;;;;;;1.02;0.50;;;17.60;51.00;;;;;;4894981;28;46134;-62
2023/01/14 09:46:51;;;;;;;1.40;0.70;;;17.60;51.00;;;;;;4905584;28;45724;-62
2023/01/14 09:49:18;;;;;;;1.30;0.73;;;17.60;51.00;;;;;;4894205;28;45334;-61
2023/01/14 09:52:03;;;;;;;0.95;0.63;;;17.60;51.00;;;;;;4909033;28;45277;-62
2023/01/14 09:54:35;;;;;;;1.35;0.70;;;17.60;51.10;;;;;;4911564;28;45217;-62
2023/01/14 09:57:31;;;;;;;2.88;0.85;;;17.50;51.00;;;;;;4915444;28;46589;-62
2023/01/14 10:00:19;;;;;;;1.55;0.80;;;17.60;51.10;;;;;;4933279;28;45481;-62
2023/01/14 10:03:11;;;;;;;1.08;0.75;;;17.50;51.00;;;;;;4916411;28;45487;-62
2023/01/14 10:05:38;;;;;;;0.80;0.68;;;17.50;50.90;;;;;;4906032;28;45281;-62
2023/01/14 10:08:05;;;;;;;0.88;0.60;;;17.50;51.00;;;;;;4899210;28;47027;-61
2023/01/14 10:10:37;;;;;;;0.75;0.50;;;17.50;51.00;;;;;;4884522;28;44855;-62
2023/01/14 10:13:12;;;;;;;1.25;0.80;;;17.50;51.10;;;;;;4906342;28;45399;-62
2023/01/14 10:15:45;;;;;;;1.33;0.60;;;17.50;51.00;;;;;;4911786;28;45271;-62
2023/01/14 10:18:13;;;;;;;1.77;0.90;;;17.50;51.10;;;;;;4931641;28;46434;-61
2023/01/14 10:20:47;;;;;;;1.67;0.77;;;17.40;51.00;;;;;;4927961;28;45476;-62
2023/01/14 10:23:14;;;;;;;1.35;0.90;;;17.50;51.10;;;;;;4915605;28;46550;-61
2023/01/14 10:25:45;;;;;;;0.90;0.60;;;17.40;51.10;;;;;;4914055;28;45245;-62
2023/01/14 10:28:13;;;;;;;1.35;0.50;;;17.40;51.10;;;;;;4929933;28;45163;-62
2023/01/14 10:30:39;;;;;;;1.10;0.70;;;17.40;51.10;;;;;;4899845;28;46691;-62
2023/01/14 10:33:05;;;;;;;0.80;0.60;;;17.40;51.10;;;;;;4913910;28;45206;-62
2023/01/14 10:35:36;;;;;;;0.68;0.55;;;17.40;51.10;;;;;;4927369;28;45454;-61
2023/01/14 10:38:02;;;;;;;1.80;0.70;;;17.40;51.10;;;;;;4899214;28;46931;-62
2023/01/14 10:40:28;;;;;;;1.23;0.65;;;17.40;51.10;;;;;;4916767;28;45380;-62
2023/01/14 10:42:55;;;;;;;2.08;0.60;;;17.40;51.10;;;;;;4894886;28;45349;-62
2023/01/14 10:45:20;;;;;;;0.75;0.68;;;17.40;51.10;;;;;;4912077;28;46365;-62
2023/01/14 10:47:47;;;;;;;1.05;0.77;;;17.40;51.10;;;;;;4911237;28;46714;-61
2023/01/14 10:50:26;;;;;;;0.93;0.60;;;17.40;51.10;;;;;;4914936;28;45050;-62
2023/01/14 10:52:53;;;;;;;0.88;0.60;;;17.40;51.10;;;;;;4901251;28;45269;-62
2023/01/14 10:55:21;;;;;;;0.85;0.60;;;17.30;51.10;;;;;;4930940;28;45476;-61
2023/01/14 10:58:06;;;;;;;0.50;0.50;;;17.40;51.10;;;;;;4899038;28;46991;-62
2023/01/14 11:00:35;;;;;;;0.98;0.75;;;17.30;51.10;;;;;;4897388;28;44980;-61
2023/01/14 11:03:03;;;;;;;1.17;0.80;;;17.30;51.10;;;;;;4916052;28;45355;-62
2023/01/14 11:05:33;;;;;;;1.10;0.60;;;17.30;51.20;;;;;;4903025;28;46206;-62
2023/01/14 11:08:23;;;;;;;1.13;0.60;;;17.30;51.20;;;;;;4916054;28;45508;-62
2023/01/14 11:10:54;;;;;;;1.27;0.70;;;17.30;51.20;;;;;;4916866;28;45012;-62
2023/01/14 11:13:36;;;;;;;0.43;0.40;;;17.30;51.10;;;;;;4900323;28;45792;-62
2023/01/14 11:16:02;;;;;;;1.58;0.70;;;17.30;51.20;;;;;;4915150;28;45542;-62
2023/01/14 11:18:32;;;;;;;1.02;0.77;;;17.30;51.20;;;;;;4910652;28;46048;-62
2023/01/14 11:21:13;;;;;;;2.40;0.75;;;17.20;51.20;;;;;;4931111;28;45178;-62
2023/01/14 11:23:58;;;;;;;0.47;0.45;;;17.30;51.20;;;;;;4933162;28;45421;-61
2023/01/14 11:26:35;;;;;;;0.77;0.57;;;17.30;51.30;;;;;;4915666;28;45201;-62
2023/01/14 11:29:22;;;;;;;0.77;0.57;;;17.30;51.20;;;;;;4900459;28;45533;-61
2023/01/14 11:31:54;;;;;;;0.88;0.60;;;17.30;51.30;;;;;;4931729;28;45270;-62
2023/01/14 11:34:20;;;;;;;1.33;0.75;;;17.20;51.20;;;;;;4901210;28;45241;-62
2023/01/14 11:36:45;;;;;;;0.40;0.40;;;17.20;51.20;;;;;;4914734;28;45595;-62
2023/01/14 11:39:14;;;;;;;0.90;0.70;;;17.20;51.80;;;;;;4914930;28;47040;-62
2023/01/14 11:41:39;;;;;;;1.27;0.60;;;17.20;51.20;;;;;;4915672;28;44727;-62
2023/01/14 11:44:15;;;;;;;0.95;0.63;;;17.20;51.20;;;;;;4912807;28;46097;-61
2023/01/14 11:46:44;;;;;;;0.75;0.50;;;17.20;51.30;;;;;;4933472;28;45397;-62
2023/01/14 11:49:12;;;;;;;1.35;0.70;;;17.20;51.20;;;;;;4897697;28;46602;-62
2023/01/14 11:51:40;;;;;;;0.63;0.60;;;17.20;51.20;;;;;;4932477;28;48755;-62
2023/01/14 11:54:19;;;;;;;2.20;1.00;;;17.20;51.20;;;;;;4915061;28;45796;-62
2023/01/14 11:56:45;;;;;;;1.05;0.73;;;17.20;51.30;;;;;;4915461;28;45317;-62
2023/01/14 11:59:25;;;;;;;1.58;0.68;;;17.20;51.20;;;;;;4913327;28;47446;-62
2023/01/14 12:01:52;;;;;;;1.30;0.70;;;17.20;51.30;;;;;;4915584;28;45240;-61
2023/01/14 12:04:20;;;;;;;1.65;0.70;;;17.20;51.20;;;;;;4917231;28;46021;-61
2023/01/14 12:07:01;;;;;;;1.90;0.60;;;17.10;51.20;;;;;;4911104;28;44752;-61
2023/01/14 12:09:44;;;;;;;1.25;0.65;;;17.10;51.30;;;;;;4916592;28;45691;-61
2023/01/14 12:12:21;;;;;;;1.33;0.65;;;17.10;51.40;;;;;;4914485;28;45542;-62
2023/01/14 12:17:41;;;;;;;1.35;0.80;;;17.10;51.30;;;;;;4916920;28;45373;-62
2023/01/14 12:20:12;;;;;;;1.17;0.65;;;17.10;51.40;;;;;;4914043;28;46422;-61
2023/01/14 12:22:47;;;;;;;1.17;0.50;;;17.10;51.40;;;;;;4902582;28;46037;-62
2023/01/14 12:25:28;;;;;;;0.90;0.70;;;17.10;51.30;;;;;;4908546;28;45080;-61
2023/01/14 12:28:05;;;;;;;1.38;0.77;;;17.00;51.30;;;;;;4910424;28;45468;-61
2023/01/14 12:30:37;;;;;;;0.77;0.50;;;17.10;51.30;;;;;;4906885;28;45243;-61
2023/01/14 12:33:08;;;;;;;0.93;0.73;;;17.10;51.40;;;;;;4899352;28;45048;-61
2023/01/14 12:35:45;;;;;;;0.70;0.63;;;17.10;51.30;;;;;;4923742;28;45372;-61
2023/01/14 12:46:39;;;;;;;1.25;0.65;;;17.00;51.30;;;;;;4917296;28;45496;-61
2023/01/14 12:49:05;;;;;;;0.95;0.70;;;17.10;51.30;;;;;;4915990;28;45315;-62
2023/01/14 12:51:31;;;;;;;2.53;0.80;;;17.00;51.30;;;;;;4914532;28;46189;-62
2023/01/14 12:54:06;;;;;;;1.63;0.75;;;17.00;51.30;;;;;;4882598;28;45631;-61
2023/01/14 12:56:36;;;;;;;0.73;0.70;;;17.00;51.30;;;;;;4914082;28;45351;-61
2023/01/14 12:59:05;;;;;;;1.23;0.68;;;17.00;51.30;;;;;;4897445;28;45309;-62
2023/01/14 13:01:56;;;;;;;0.77;0.43;;;17.00;51.40;;;;;;4923058;28;45864;-61
2023/01/14 13:04:49;;;;;;;0.50;0.50;;;17.00;51.30;;;;;;4883822;28;45570;-62
2023/01/14 13:07:22;;;;;;;0.93;0.70;;;17.00;51.30;;;;;;4922476;28;44774;-62
2023/01/14 13:09:55;;;;;;;1.02;0.85;;;17.00;51.30;;;;;;4910932;28;45384;-62
2023/01/14 13:12:36;;;;;;;1.48;0.90;;;17.00;51.30;;;;;;4912655;28;46002;-61
2023/01/14 13:15:04;;;;;;;1.45;0.75;;;17.00;51.40;;;;;;4914932;28;45323;-62
2023/01/14 13:17:34;;;;;;;1.00;0.57;;;17.00;51.30;;;;;;4909989;28;45458;-62
2023/01/14 13:20:19;;;;;;;1.30;0.52;;;17.00;51.30;;;;;;4915040;28;44767;-62
2023/01/14 13:22:48;;;;;;;0.50;0.50;;;17.00;51.40;;;;;;4915932;28;45473;-62
2023/01/14 13:25:38;;;;;;;0.73;0.60;;;17.00;51.40;;;;;;4915051;28;44685;-62
2023/01/14 13:28:10;;;;;;;0.93;0.65;;;16.90;51.30;;;;;;4933339;28;45337;-61
2023/01/14 13:31:05;;;;;;;0.80;0.50;;;16.90;51.30;;;;;;4927098;28;45657;-63
2023/01/14 13:33:37;;;;;;;0.80;0.60;;;17.00;51.40;;;;;;4926744;28;45376;-63
2023/01/14 13:36:06;;;;;;;0.75;0.63;;;17.00;51.30;;;;;;4913474;28;44924;-63
2023/01/14 13:38:31;;;;;;;1.30;0.73;;;17.00;51.30;;;;;;4933138;28;45226;-63
2023/01/14 13:41:09;;;;;;;0.90;0.73;;;17.00;51.20;;;;;;4898785;28;45462;-63
2023/01/14 13:43:53;;;;;;;0.60;0.40;;;17.00;51.20;;;;;;4903215;28;45294;-63
2023/01/14 13:46:43;;;;;;;0.93;0.57;;;17.00;51.20;;;;;;4914765;28;45531;-62
2023/01/14 13:49:40;;;;;;;0.88;0.57;;;17.00;51.80;;;;;;4903618;28;44950;-63
2023/01/14 13:52:15;;;;;;;0.85;0.80;;;17.00;51.30;;;;;;4921898;28;44827;-63
2023/01/14 13:54:40;;;;;;;1.17;0.57;;;17.10;51.30;;;;;;4897472;28;45716;-62
2023/01/14 13:57:20;;;;;;;1.13;0.60;;;17.00;51.30;;;;;;4899981;28;45240;-62
2023/01/14 13:59:53;;;;;;;1.48;0.52;;;17.00;51.20;;;;;;4913560;28;46336;-62
2023/01/14 14:02:38;;;;;;;2.67;0.70;;;17.10;51.30;;;;;;4901080;28;46076;-62
2023/01/14 14:05:13;;;;;;;1.20;0.60;;;17.10;51.30;;;;;;4912524;28;45556;-62
2023/01/14 14:08:01;;;;;;;0.90;0.60;;;17.10;51.30;;;;;;4915802;28;46270;-62
2023/01/14 14:10:30;;;;;;;1.30;0.70;;;17.00;51.20;;;;;;4916490;28;48066;-63
2023/01/14 14:15:54;;;;;;;0.73;0.55;;;17.10;51.20;;;;;;4915643;28;46799;-62
2023/01/14 14:18:35;;;;;;;0.75;0.60;;;17.10;51.20;;;;;;4917586;28;45254;-62
2023/01/14 14:21:02;;;;;;;0.82;0.63;;;17.10;51.20;;;;;;4899069;28;45406;-63
2023/01/14 14:23:30;;;;;;;1.60;0.65;;;17.10;51.20;;;;;;4916642;28;45063;-62
2023/01/14 14:25:56;;;;;;;0.82;0.50;;;17.10;51.20;;;;;;4895926;28;45173;-62
2023/01/14 14:28:26;;;;;;;0.60;0.50;;;17.10;51.20;;;;;;4934004;28;44835;-63
2023/01/14 14:30:58;;;;;;;0.85;0.47;;;17.10;51.20;;;;;;4909784;28;45260;-62
2023/01/14 14:33:39;;;;;;;0.77;0.60;;;17.10;51.20;;;;;;4903182;28;46082;-63
2023/01/14 14:36:18;;;;;;;1.20;0.50;;;17.10;51.20;;;;;;4917793;28;46011;-63
2023/01/14 14:38:51;;;;;;;0.65;0.43;;;17.20;51.20;;;;;;4929945;28;45228;-62
2023/01/14 14:41:22;;;;;;;1.05;0.63;;;17.20;51.20;;;;;;4894609;28;45244;-61
2023/01/14 14:44:03;;;;;;;0.57;0.57;;;17.20;51.20;;;;;;4914933;28;44790;-62
2023/01/14 14:46:28;;;;;;;0.70;0.50;;;17.10;51.20;;;;;;4920518;28;48219;-61
2023/01/14 14:48:54;;;;;;;1.58;0.80;;;17.10;51.20;;;;;;4916162;28;45346;-62
2023/01/14 14:51:26;;;;;;;0.95;0.70;;;17.10;51.20;;;;;;4914278;28;44740;-62
2023/01/14 14:53:51;;;;;;;1.15;0.70;;;17.10;51.20;;;;;;4915922;28;45331;-62
2023/01/14 14:56:18;;;;;;;0.75;0.60;;;17.10;51.20;;;;;;4915054;28;45546;-61
2023/01/14 14:58:50;;;;;;;1.30;0.60;;;17.10;51.20;;;;;;4912747;28;45239;-62
2023/01/14 15:01:15;;;;;;;1.45;0.60;;;17.10;51.20;;;;;;4913871;28;44957;-61
2023/01/14 15:03:41;;;;;;;0.70;0.60;;;17.10;51.20;;;;;;4914896;28;44729;-61
2023/01/14 15:06:13;;;;;;;0.35;0.28;;;17.10;51.20;;;;;;4919960;28;45123;-62
2023/01/14 15:08:54;;;;;;;1.17;0.70;;;17.10;51.20;;;;;;4918667;28;45871;-62
2023/01/14 15:11:21;;;;;;;0.70;0.68;;;17.10;51.20;;;;;;4918442;28;45587;-62
2023/01/14 15:13:46;;;;;;;0.73;0.57;;;17.10;51.20;;;;;;4917600;28;45449;-61
2023/01/14 15:16:18;;;;;;;1.15;0.70;;;17.10;51.20;;;;;;4912286;28;45310;-62
2023/01/14 15:18:49;;;;;;;0.73;0.50;;;17.00;51.20;;;;;;4933904;28;44698;-61
2023/01/14 15:21:18;;;;;;;0.60;0.50;;;17.00;51.20;;;;;;4918565;28;45680;-61
2023/01/14 15:23:47;;;;;;;0.82;0.80;;;17.00;51.20;;;;;;4915127;28;45271;-61
2023/01/14 15:26:17;;;;;;;1.17;0.73;;;17.00;51.30;;;;;;4928748;28;45531;-61
2023/01/14 15:28:44;;;;;;;0.75;0.52;;;17.00;51.30;;;;;;4927775;28;46383;-61
2023/01/14 15:31:19;;;;;;;1.13;0.63;;;17.00;51.20;;;;;;4895464;28;45561;-62
2023/01/14 15:34:20;;;;;;;0.90;0.68;;;17.00;51.30;;;;;;4916048;28;45578;-62
2023/01/14 15:36:56;;;;;;;1.13;0.70;;;17.00;51.30;;;;;;4913543;28;47607;-61
2023/01/14 15:39:22;;;;;;;1.23;0.60;;;17.00;51.30;;;;;;4910307;28;45218;-61
2023/01/14 15:41:58;;;;;;;1.48;0.70;;;17.00;51.30;;;;;;4909727;28;44982;-62
2023/01/14 15:44:44;;;;;;;0.98;0.57;;;17.00;51.30;;;;;;4921195;28;44797;-61
2023/01/14 15:47:09;;;;;;;0.57;0.57;;;17.00;51.40;;;;;;4916043;28;45350;-62
2023/01/14 15:49:35;;;;;;;1.15;0.70;;;16.90;51.20;;;;;;4915713;28;45202;-61
2023/01/14 15:52:05;;;;;;;0.50;0.50;;;16.90;51.90;;;;;;4900750;28;44764;-62
2023/01/14 15:54:40;;;;;;;1.02;0.80;;;16.90;51.30;;;;;;4932353;28;45176;-61
2023/01/14 15:57:15;;;;;;;0.73;0.63;;;16.90;51.30;;;;;;4914211;28;46225;-61
2023/01/14 16:00:09;;;;;;;1.50;0.60;;;16.90;51.40;;;;;;4930049;28;45574;-61
2023/01/14 16:02:35;;;;;;;0.82;0.40;;;16.90;51.40;;;;;;4931256;28;45416;-61
2023/01/14 16:05:20;;;;;;;0.80;0.60;;;16.80;51.30;;;;;;4913834;28;45286;-61
2023/01/14 16:07:46;;;;;;;0.60;0.43;;;16.80;51.40;;;;;;4926633;28;45815;-61
2023/01/14 16:10:13;;;;;;;1.05;0.80;;;16.80;51.40;;;;;;4912843;28;45788;-61
2023/01/14 16:12:39;;;;;;;0.90;0.60;;;16.80;51.50;;;;;;4912160;28;45364;-61
2023/01/14 16:15:26;;;;;;;1.38;0.70;;;16.80;51.50;;;;;;4898038;28;45393;-61
2023/01/14 16:18:26;;;;;;;0.75;0.55;;;16.80;51.50;;;;;;4915776;28;45232;-61
2023/01/14 16:20:52;;;;;;;1.08;0.70;;;16.80;51.50;;;;;;4903179;28;46072;-61
2023/01/14 16:23:19;;;;;;;1.02;0.60;;;16.70;51.40;;;;;;4901116;28;45654;-61
2023/01/14 16:25:44;;;;;;;1.55;0.60;;;16.70;51.40;;;;;;4932900;28;45471;-60
2023/01/14 16:28:10;;;;;;;0.60;0.50;;;16.70;51.40;;;;;;4916331;28;46153;-61
2023/01/14 16:30:35;;;;;;;1.00;0.60;;;16.70;51.40;;;;;;4914430;28;44865;-61
2023/01/14 16:33:01;;;;;;;1.17;0.70;;;16.70;51.40;;;;;;4914310;28;45370;-61
2023/01/14 16:35:26;;;;;;;1.70;0.70;;;16.70;51.40;;;;;;4916212;28;45423;-61
2023/01/14 16:37:52;;;;;;;1.88;0.80;;;16.70;51.50;;;;;;4929884;28;46178;-61
2023/01/14 16:40:30;;;;;;;0.55;0.40;;;16.70;51.50;;;;;;4934779;28;45405;-61
2023/01/14 16:42:55;;;;;;;0.82;0.47;;;16.70;51.50;;;;;;4907000;28;45600;-62
2023/01/14 16:45:21;;;;;;;0.90;0.55;;;16.70;51.50;;;;;;4932799;28;44823;-61
2023/01/14 16:47:47;;;;;;;1.15;0.57;;;16.70;51.50;;;;;;4900394;28;46484;-61
2023/01/14 16:50:12;;;;;;;0.60;0.50;;;16.70;51.50;;;;;;4918042;28;45207;-62
2023/01/14 16:52:38;;;;;;;1.27;0.50;;;16.70;51.50;;;;;;4918972;28;45138;-61
2023/01/14 16:55:05;;;;;;;1.13;0.70;;;16.70;51.50;;;;;;4900061;28;45256;-61
2023/01/14 16:57:30;;;;;;;0.80;0.70;;;16.60;51.50;;;;;;4902973;28;45418;-61
2023/01/14 16:59:56;;;;;;;0.68;0.50;;;16.60;51.40;;;;;;4932181;28;45349;-61
2023/01/14 17:02:21;;;;;;;0.60;0.47;;;16.60;51.50;;;;;;4909066;28;45140;-61
2023/01/14 17:04:47;;;;;;;1.08;0.63;;;16.60;51.40;;;;;;4914498;28;45337;-61
2023/01/14 17:07:13;;;;;;;0.70;0.60;;;16.60;51.50;;;;;;4930541;28;45553;-61
2023/01/14 17:09:38;;;;;;;2.30;0.70;;;16.60;51.50;;;;;;4930983;28;45330;-61
2023/01/14 17:14:48;;;;;;;0.57;0.50;;;16.60;51.50;;;;;;4894831;28;45178;-62
2023/01/14 17:17:15;;;;;;;0.75;0.50;;;16.60;51.50;;;;;;4910212;28;45333;-63
2023/01/14 17:19:41;;;;;;;0.90;0.68;;;16.60;51.50;;;;;;4882139;28;45780;-62
2023/01/14 17:22:07;;;;;;;1.17;0.60;;;16.60;51.40;;;;;;4898555;28;45169;-63
2023/01/14 17:24:33;;;;;;;1.10;0.57;;;16.60;51.40;;;;;;4900286;28;45423;-62
2023/01/14 17:26:59;;;;;;;1.27;0.60;;;16.70;51.40;;;;;;4883821;28;46984;-63
2023/01/14 17:29:26;;;;;;;0.80;0.70;;;16.70;51.40;;;;;;4896892;28;45258;-63
2023/01/14 17:31:52;;;;;;;0.50;0.50;;;16.70;51.30;;;;;;4877690;28;45362;-63
2023/01/14 17:34:18;;;;;;;1.20;0.70;;;16.70;51.30;;;;;;4911572;28;45419;-62
2023/01/14 17:36:43;;;;;;;0.47;0.47;;;16.70;51.30;;;;;;4880306;28;47263;-63
2023/01/14 17:39:09;;;;;;;0.68;0.55;;;16.70;51.30;;;;;;4894116;28;45602;-63
2023/01/14 17:44:18;;;;;;;0.85;0.60;;;16.80;51.30;;;;;;4917571;28;45253;-63
2023/01/14 17:46:44;;;;;;;1.55;0.75;;;16.90;51.20;;;;;;4880141;28;46932;-63
2023/01/14 17:49:13;;;;;;;1.05;0.60;;;16.90;51.20;;;;;;4912058;28;45068;-63
2023/01/14 17:51:38;;;;;;;0.82;0.80;;;16.90;51.20;;;;;;4897784;28;45205;-63